Time;durP1;ratioP1;P1;durP2;ratioP2;P2;SDS_P1;SDS_P2;PMS_P1;PMS_P2;Temp;Humidity;BMP_temperature;BMP_pressure;BME280_temperature;BME280_humidity;BME280_pressure;Samples;Min_cycle;Max_cycle;Signal;HPM_P1;HPM_P2
2023/01/22 00:00:25;;;;;;;36.20;22.40;;;2.60;99.90;;;;;;5035355;28;20489;-55
2023/01/22 00:02:52;;;;;;;36.63;22.70;;;2.50;99.90;;;;;;5035007;28;20817;-55
2023/01/22 00:05:18;;;;;;;40.70;25.33;;;2.50;99.90;;;;;;5035430;28;20451;-61
2023/01/22 00:07:45;;;;;;;35.97;24.73;;;2.60;99.90;;;;;;5035268;28;20463;-53
2023/01/22 00:10:12;;;;;;;36.80;24.80;;;2.50;99.90;;;;;;5035221;28;20474;-55
2023/01/22 00:12:39;;;;;;;36.57;23.50;;;2.50;99.90;;;;;;5035005;28;20514;-55
2023/01/22 00:15:08;;;;;;;37.40;23.30;;;2.50;99.90;;;;;;5035273;28;20462;-55
2023/01/22 00:17:36;;;;;;;33.13;21.50;;;2.50;99.90;;;;;;5035034;28;20450;-55
2023/01/22 00:20:02;;;;;;;35.63;22.70;;;2.50;99.90;;;;;;5034939;28;20487;-55
2023/01/22 00:22:29;;;;;;;35.10;21.33;;;2.50;99.90;;;;;;5034890;28;20474;-55
2023/01/22 00:24:56;;;;;;;32.00;20.63;;;2.50;99.90;;;;;;5034972;28;20451;-55
2023/01/22 00:27:23;;;;;;;32.83;22.67;;;2.50;99.90;;;;;;5034932;28;20442;-54
2023/01/22 00:29:49;;;;;;;34.50;21.50;;;2.50;99.90;;;;;;5034856;28;20846;-54
2023/01/22 00:32:17;;;;;;;33.30;20.43;;;2.60;99.90;;;;;;5034611;28;20487;-55
2023/01/22 00:34:50;;;;;;;39.73;23.13;;;2.50;99.90;;;;;;5034842;28;20439;-55
2023/01/22 00:37:19;;;;;;;33.30;21.70;;;2.50;99.90;;;;;;5035083;28;20434;-55
2023/01/22 00:39:45;;;;;;;38.17;22.27;;;2.60;99.90;;;;;;5034592;28;20493;-55
2023/01/22 00:42:12;;;;;;;35.13;22.30;;;2.60;99.90;;;;;;5034209;28;20846;-55
2023/01/22 00:44:39;;;;;;;34.00;21.73;;;2.60;99.90;;;;;;5034566;28;20432;-55
2023/01/22 00:47:05;;;;;;;31.07;21.50;;;2.50;99.90;;;;;;5034548;28;20463;-54
2023/01/22 00:49:33;;;;;;;34.50;20.67;;;2.60;99.90;;;;;;5034709;28;20454;-54
2023/01/22 00:52:00;;;;;;;31.80;21.10;;;2.50;99.90;;;;;;5034285;28;20478;-54
2023/01/22 00:54:28;;;;;;;36.57;22.47;;;2.60;99.90;;;;;;5034413;28;20454;-55
2023/01/22 00:56:55;;;;;;;35.90;22.33;;;2.60;99.90;;;;;;5034207;28;20459;-54
2023/01/22 00:59:22;;;;;;;36.23;22.43;;;2.60;99.90;;;;;;5034191;28;20451;-54
2023/01/22 01:01:49;;;;;;;37.63;23.30;;;2.60;99.90;;;;;;5034161;28;20520;-54
2023/01/22 01:04:15;;;;;;;29.53;19.97;;;2.70;99.90;;;;;;5034179;28;20451;-54
2023/01/22 01:06:43;;;;;;;30.17;19.83;;;2.60;99.90;;;;;;5033885;28;20830;-54
2023/01/22 01:09:10;;;;;;;36.10;22.83;;;2.60;99.90;;;;;;5034120;28;20452;-54
2023/01/22 01:11:37;;;;;;;31.70;20.00;;;2.60;99.90;;;;;;5034033;28;20455;-55
2023/01/22 01:14:04;;;;;;;34.70;20.77;;;2.60;99.90;;;;;;5033971;28;20454;-54
2023/01/22 01:16:32;;;;;;;34.97;23.60;;;2.70;99.90;;;;;;5034086;28;20796;-54
2023/01/22 01:18:59;;;;;;;33.93;21.93;;;2.70;99.90;;;;;;5033974;28;20451;-54
2023/01/22 01:21:26;;;;;;;32.30;22.30;;;2.70;99.90;;;;;;5021945;28;20990;-55
2023/01/22 01:23:56;;;;;;;30.10;21.00;;;2.70;99.90;;;;;;5014438;28;20452;-55
2023/01/22 01:26:23;;;;;;;36.73;21.37;;;2.70;99.90;;;;;;5014478;28;20452;-55
2023/01/22 01:28:51;;;;;;;31.00;21.87;;;2.70;99.90;;;;;;5014066;28;20452;-55
2023/01/22 01:31:19;;;;;;;29.63;20.20;;;2.70;99.90;;;;;;5014104;28;20435;-56
2023/01/22 01:33:46;;;;;;;33.93;23.03;;;2.70;99.90;;;;;;5014024;28;20476;-55
2023/01/22 01:36:15;;;;;;;32.00;21.00;;;2.70;99.90;;;;;;5013965;28;20455;-54
2023/01/22 01:38:42;;;;;;;32.03;22.30;;;2.70;99.90;;;;;;5013908;28;20463;-54
2023/01/22 01:41:13;;;;;;;33.70;22.03;;;2.70;99.90;;;;;;5013492;28;20826;-55
2023/01/22 01:43:40;;;;;;;31.70;21.37;;;2.70;99.90;;;;;;5013455;28;21022;-55
2023/01/22 01:46:19;;;;;;;33.13;22.53;;;2.80;99.90;;;;;;5013865;28;20454;-55
2023/01/22 01:48:48;;;;;;;32.63;21.10;;;2.70;99.90;;;;;;5024087;28;20445;-54
2023/01/22 01:51:19;;;;;;;31.87;20.33;;;2.70;99.90;;;;;;5033439;28;20451;-54
2023/01/22 01:53:50;;;;;;;28.37;20.60;;;2.70;99.90;;;;;;5033589;28;20475;-55
2023/01/22 01:56:23;;;;;;;29.47;20.20;;;2.70;99.90;;;;;;5033484;28;20436;-55
2023/01/22 01:58:52;;;;;;;32.60;22.10;;;2.70;99.90;;;;;;5033723;28;20443;-55
2023/01/22 02:01:19;;;;;;;33.53;21.90;;;2.70;99.90;;;;;;5033281;28;20484;-55
2023/01/22 02:03:47;;;;;;;28.27;20.67;;;2.70;99.90;;;;;;5033367;28;20478;-55
2023/01/22 02:06:17;;;;;;;34.73;20.70;;;2.70;99.90;;;;;;5033409;28;20447;-56
2023/01/22 02:08:46;;;;;;;33.53;21.83;;;2.70;99.90;;;;;;5033681;28;20450;-55
2023/01/22 02:11:13;;;;;;;30.40;20.23;;;2.70;99.90;;;;;;5037538;28;20442;-56
2023/01/22 02:13:45;;;;;;;28.97;19.33;;;2.70;99.90;;;;;;5037233;28;20463;-55
2023/01/22 02:16:12;;;;;;;35.23;22.33;;;2.70;99.90;;;;;;5037101;28;20919;-55
2023/01/22 02:18:39;;;;;;;34.90;21.77;;;2.70;99.90;;;;;;5037337;28;20818;-54
2023/01/22 02:21:27;;;;;;;34.03;21.70;;;2.70;99.90;;;;;;5036821;28;20986;-55
2023/01/22 02:23:54;;;;;;;32.70;20.70;;;2.70;99.90;;;;;;5037802;28;20427;-55
2023/01/22 02:26:21;;;;;;;33.13;21.27;;;2.70;99.90;;;;;;5037255;28;20454;-54
2023/01/22 02:28:47;;;;;;;29.00;19.47;;;2.80;99.90;;;;;;5037167;28;20449;-55
2023/01/22 02:31:14;;;;;;;31.27;20.40;;;2.80;99.90;;;;;;5037382;28;20440;-54
2023/01/22 02:33:41;;;;;;;36.90;21.17;;;2.80;99.90;;;;;;5037094;28;20474;-54
2023/01/22 02:36:08;;;;;;;29.03;19.77;;;2.80;99.90;;;;;;5036706;28;20447;-54
2023/01/22 02:38:36;;;;;;;29.27;20.37;;;2.80;99.90;;;;;;5036975;28;20452;-54
2023/01/22 02:41:04;;;;;;;29.90;20.90;;;2.80;99.90;;;;;;5036959;28;20491;-55
2023/01/22 02:43:30;;;;;;;31.53;21.17;;;2.80;99.90;;;;;;5036934;28;20491;-54
2023/01/22 02:45:57;;;;;;;32.20;20.50;;;2.80;99.90;;;;;;5037209;28;20419;-54
2023/01/22 02:48:24;;;;;;;29.33;19.00;;;2.80;99.90;;;;;;5037234;28;20451;-55
2023/01/22 02:50:50;;;;;;;31.20;21.10;;;2.80;99.90;;;;;;5037223;28;20455;-55
2023/01/22 02:53:17;;;;;;;33.17;21.20;;;2.80;99.90;;;;;;5036840;28;20998;-55
2023/01/22 02:55:46;;;;;;;32.10;20.97;;;2.80;99.90;;;;;;5037913;28;20933;-54
2023/01/22 02:58:13;;;;;;;29.33;20.63;;;2.80;99.90;;;;;;5038239;28;20450;-54
2023/01/22 03:00:40;;;;;;;29.07;19.63;;;2.80;99.90;;;;;;5036987;28;21017;-54
2023/01/22 03:03:06;;;;;;;27.40;18.77;;;2.80;99.90;;;;;;5036455;28;20550;-54
2023/01/22 03:05:33;;;;;;;27.93;19.27;;;2.80;99.90;;;;;;5036480;28;20452;-55
2023/01/22 03:08:00;;;;;;;31.50;20.00;;;2.80;99.90;;;;;;5036426;28;20463;-53
2023/01/22 03:10:27;;;;;;;28.53;18.87;;;2.70;99.90;;;;;;5036391;28;20474;-54
2023/01/22 03:21:14;;;;;;;31.93;18.23;;;2.70;99.90;;;;;;5036038;28;20453;-55
2023/01/22 03:23:41;;;;;;;30.70;19.27;;;2.70;99.90;;;;;;5036101;28;20544;-56
2023/01/22 03:26:08;;;;;;;32.73;21.57;;;2.70;99.90;;;;;;5036133;28;20512;-54
2023/01/22 03:28:36;;;;;;;26.30;18.57;;;2.70;99.90;;;;;;5036061;28;20817;-54
2023/01/22 03:31:04;;;;;;;31.47;20.07;;;2.70;99.90;;;;;;5035697;28;20955;-56
2023/01/22 03:33:31;;;;;;;29.37;20.37;;;2.70;99.90;;;;;;5036002;28;20480;-55
2023/01/22 03:36:02;;;;;;;26.33;19.50;;;2.70;99.90;;;;;;5036023;28;20445;-55
2023/01/22 03:38:29;;;;;;;28.37;20.40;;;2.70;99.90;;;;;;5035970;28;20443;-55
2023/01/22 03:41:02;;;;;;;27.30;17.47;;;2.70;99.90;;;;;;5035828;28;20479;-55
2023/01/22 03:43:28;;;;;;;29.40;19.60;;;2.70;99.90;;;;;;5035501;28;21011;-55
2023/01/22 03:46:05;;;;;;;26.67;20.13;;;2.70;99.90;;;;;;5036061;28;20458;-55
2023/01/22 03:48:32;;;;;;;27.77;20.73;;;2.70;99.90;;;;;;5035713;28;20434;-55
2023/01/22 03:51:05;;;;;;;28.10;19.90;;;2.70;99.90;;;;;;5035527;28;20443;-55
2023/01/22 03:53:32;;;;;;;30.53;19.70;;;2.70;99.90;;;;;;5035528;28;20475;-55
2023/01/22 03:56:00;;;;;;;29.20;20.37;;;2.70;99.90;;;;;;5035547;28;20457;-55
2023/01/22 03:58:28;;;;;;;28.50;20.57;;;2.70;99.90;;;;;;5035488;28;20456;-55
2023/01/22 04:00:56;;;;;;;28.73;20.53;;;2.60;99.90;;;;;;5035389;28;20475;-55
2023/01/22 04:03:26;;;;;;;29.00;19.80;;;2.70;99.90;;;;;;5035330;28;20471;-55
2023/01/22 04:05:53;;;;;;;29.03;19.37;;;2.70;99.90;;;;;;5035385;28;20443;-54
2023/01/22 04:08:20;;;;;;;27.10;19.27;;;2.70;99.90;;;;;;5035319;28;20455;-55
2023/01/22 04:10:47;;;;;;;27.97;19.30;;;2.70;99.90;;;;;;5035235;28;20459;-54
2023/01/22 04:13:14;;;;;;;28.40;20.47;;;2.70;99.90;;;;;;5035087;28;20475;-55
2023/01/22 04:15:43;;;;;;;28.30;20.30;;;2.70;99.90;;;;;;5034858;28;20954;-55
2023/01/22 04:18:10;;;;;;;30.10;18.93;;;2.70;99.90;;;;;;5034816;28;20566;-54
2023/01/22 04:20:39;;;;;;;29.97;19.47;;;2.70;99.90;;;;;;5030380;28;20483;-54
2023/01/22 04:23:07;;;;;;;26.47;18.90;;;2.70;99.90;;;;;;5014837;28;20863;-55
2023/01/22 04:25:34;;;;;;;25.27;18.17;;;2.70;99.90;;;;;;5015201;28;20455;-54
2023/01/22 04:28:01;;;;;;;24.27;18.20;;;2.70;99.90;;;;;;5015203;28;20451;-55
2023/01/22 04:30:28;;;;;;;26.83;18.13;;;2.60;99.90;;;;;;5015125;28;20455;-55
2023/01/22 04:32:55;;;;;;;23.90;17.87;;;2.60;99.90;;;;;;5014453;28;20479;-55
2023/01/22 04:35:22;;;;;;;24.37;17.60;;;2.70;99.90;;;;;;5014895;28;21014;-54
2023/01/22 04:37:51;;;;;;;23.70;17.53;;;2.60;99.90;;;;;;5015810;28;20447;-55
2023/01/22 04:40:19;;;;;;;26.90;17.50;;;2.60;99.90;;;;;;5014866;28;20484;-55
2023/01/22 04:42:45;;;;;;;25.10;18.83;;;2.70;99.90;;;;;;5014369;28;20857;-54
2023/01/22 04:45:12;;;;;;;21.80;17.00;;;2.70;99.90;;;;;;5014857;28;20446;-54
2023/01/22 04:47:41;;;;;;;26.80;17.93;;;2.70;99.90;;;;;;5014767;28;20452;-54
2023/01/22 04:50:11;;;;;;;25.83;17.60;;;2.70;99.90;;;;;;5014755;28;20451;-55
2023/01/22 04:52:38;;;;;;;26.93;18.90;;;2.70;99.90;;;;;;5014843;28;20468;-55
2023/01/22 04:55:08;;;;;;;24.47;17.60;;;2.70;99.90;;;;;;5014686;28;20525;-55
2023/01/22 04:57:34;;;;;;;25.20;18.77;;;2.60;99.90;;;;;;5014722;28;20591;-54
2023/01/22 05:00:01;;;;;;;24.63;17.03;;;2.60;99.90;;;;;;5014549;28;20455;-55
2023/01/22 05:02:28;;;;;;;23.33;18.37;;;2.60;99.90;;;;;;5014896;28;20499;-55
2023/01/22 05:04:55;;;;;;;29.07;18.50;;;2.70;99.90;;;;;;5014257;28;20464;-55
2023/01/22 05:07:21;;;;;;;25.50;17.50;;;2.70;99.90;;;;;;5014226;28;20455;-56
2023/01/22 05:09:48;;;;;;;20.80;16.43;;;2.70;99.90;;;;;;5014062;28;20455;-55
2023/01/22 05:12:16;;;;;;;24.80;18.57;;;2.70;99.90;;;;;;5014271;28;20469;-56
2023/01/22 05:14:43;;;;;;;23.37;18.23;;;2.60;99.90;;;;;;5014319;28;20452;-55
2023/01/22 05:17:09;;;;;;;24.83;17.70;;;2.70;99.90;;;;;;5014317;28;20802;-55
2023/01/22 05:19:36;;;;;;;25.13;18.70;;;2.70;99.90;;;;;;5013921;28;20970;-56
2023/01/22 05:22:04;;;;;;;25.77;18.73;;;2.60;99.90;;;;;;5013680;28;21000;-55
2023/01/22 05:24:30;;;;;;;25.90;18.83;;;2.70;99.90;;;;;;5014180;28;20464;-56
2023/01/22 05:26:57;;;;;;;24.73;18.70;;;2.70;99.90;;;;;;5014172;28;20447;-56
2023/01/22 05:29:26;;;;;;;23.13;16.77;;;2.70;99.90;;;;;;5014093;28;20442;-56
2023/01/22 05:31:52;;;;;;;26.17;18.30;;;2.70;99.90;;;;;;5013962;28;20474;-56
2023/01/22 05:34:19;;;;;;;24.07;16.83;;;2.70;99.90;;;;;;5013998;28;20793;-56
2023/01/22 05:36:46;;;;;;;27.33;18.17;;;2.70;99.90;;;;;;5013984;28;20457;-56
2023/01/22 05:39:13;;;;;;;25.60;17.80;;;2.70;99.90;;;;;;5013923;28;20458;-56
2023/01/22 05:41:40;;;;;;;21.80;17.70;;;2.70;99.90;;;;;;5013763;28;20471;-55
2023/01/22 05:44:07;;;;;;;25.10;18.03;;;2.70;99.90;;;;;;5012633;28;20515;-55
2023/01/22 05:46:35;;;;;;;26.43;17.60;;;2.70;99.90;;;;;;5013960;28;20506;-56
2023/01/22 05:49:02;;;;;;;20.80;17.13;;;2.70;99.90;;;;;;5014585;28;20464;-56
2023/01/22 05:51:29;;;;;;;23.67;18.10;;;2.70;99.90;;;;;;5013276;28;20494;-54
2023/01/22 05:53:55;;;;;;;20.13;17.40;;;2.70;99.90;;;;;;5013842;28;20456;-55
2023/01/22 05:56:22;;;;;;;22.10;17.00;;;2.70;99.90;;;;;;5013812;28;20452;-56
2023/01/22 05:58:49;;;;;;;24.67;18.47;;;2.70;99.90;;;;;;5013772;28;20456;-55
2023/01/22 06:01:16;;;;;;;23.20;17.97;;;2.70;99.90;;;;;;5013476;28;20488;-56
2023/01/22 06:03:44;;;;;;;21.57;16.80;;;2.70;99.90;;;;;;5013286;28;20987;-56
2023/01/22 06:06:13;;;;;;;24.80;18.50;;;2.70;99.90;;;;;;5013323;28;20821;-55
2023/01/22 06:08:40;;;;;;;23.97;17.07;;;2.70;99.90;;;;;;5013562;28;20447;-55
2023/01/22 06:11:08;;;;;;;21.67;17.07;;;2.70;99.90;;;;;;5013570;28;20444;-56
2023/01/22 06:13:35;;;;;;;22.87;17.30;;;2.70;99.90;;;;;;5013114;28;20991;-56
2023/01/22 06:16:02;;;;;;;21.90;16.67;;;2.70;99.90;;;;;;5013549;28;20452;-56
2023/01/22 06:18:28;;;;;;;23.27;16.90;;;2.70;99.90;;;;;;5013580;28;20444;-55
2023/01/22 06:21:00;;;;;;;22.13;17.50;;;2.80;99.90;;;;;;5013455;28;20455;-56
2023/01/22 06:23:27;;;;;;;23.23;17.20;;;2.80;99.90;;;;;;5013737;28;20476;-55
2023/01/22 06:25:54;;;;;;;22.50;17.63;;;2.80;99.90;;;;;;5013444;28;20451;-55
2023/01/22 06:28:21;;;;;;;24.23;17.07;;;2.80;99.90;;;;;;5013509;28;20451;-56
2023/01/22 06:30:48;;;;;;;24.93;17.10;;;2.80;99.90;;;;;;5013164;28;20957;-56
2023/01/22 06:33:15;;;;;;;23.77;17.90;;;2.80;99.90;;;;;;5013288;28;20523;-56
2023/01/22 06:35:41;;;;;;;21.90;17.13;;;2.80;99.90;;;;;;5013442;28;20800;-56
2023/01/22 06:38:10;;;;;;;21.50;16.73;;;2.80;99.90;;;;;;5013875;28;20459;-56
2023/01/22 06:40:37;;;;;;;22.20;17.63;;;2.80;99.90;;;;;;5013336;28;20450;-56
2023/01/22 06:43:04;;;;;;;23.43;18.03;;;2.80;99.90;;;;;;5013028;28;20492;-55
2023/01/22 06:45:30;;;;;;;25.03;17.70;;;2.80;99.90;;;;;;5013087;28;20957;-56
2023/01/22 06:47:57;;;;;;;25.83;17.60;;;2.90;99.90;;;;;;5013331;28;20458;-56
2023/01/22 06:50:24;;;;;;;25.20;16.80;;;2.90;99.90;;;;;;5012868;28;20459;-56
2023/01/22 06:52:50;;;;;;;24.03;16.40;;;2.90;99.90;;;;;;5013142;28;20811;-56
2023/01/22 06:55:19;;;;;;;24.10;17.70;;;2.90;99.90;;;;;;5014518;28;20450;-55
2023/01/22 06:57:46;;;;;;;23.03;18.67;;;2.90;99.90;;;;;;5016938;28;20460;-56
2023/01/22 07:00:13;;;;;;;22.57;16.53;;;2.90;99.90;;;;;;5015376;28;20837;-56
2023/01/22 07:02:40;;;;;;;23.23;17.70;;;2.90;99.90;;;;;;5016524;28;20530;-55
2023/01/22 07:05:07;;;;;;;24.63;17.00;;;2.90;99.90;;;;;;5016858;28;20441;-56
2023/01/22 07:07:34;;;;;;;23.90;17.00;;;2.90;99.90;;;;;;5016725;28;20456;-56
2023/01/22 07:10:01;;;;;;;25.77;17.70;;;2.80;99.90;;;;;;5016620;28;20456;-56
2023/01/22 07:12:29;;;;;;;26.00;19.67;;;2.90;99.90;;;;;;5016469;28;20511;-55
2023/01/22 07:14:55;;;;;;;23.73;19.17;;;2.90;99.90;;;;;;5016565;28;20455;-56
2023/01/22 07:17:22;;;;;;;25.97;19.47;;;2.90;99.90;;;;;;5015369;28;20451;-56
2023/01/22 07:19:49;;;;;;;23.27;18.27;;;2.90;99.90;;;;;;5016227;28;20904;-56
2023/01/22 07:22:15;;;;;;;27.20;19.23;;;2.90;99.90;;;;;;5015991;28;20884;-55
2023/01/22 07:24:42;;;;;;;24.07;18.80;;;2.90;99.90;;;;;;5016400;28;20457;-56
2023/01/22 07:27:09;;;;;;;25.87;17.70;;;3.00;99.90;;;;;;5016350;28;20447;-56
2023/01/22 07:29:37;;;;;;;24.97;19.40;;;2.90;99.90;;;;;;5016161;28;20479;-56
2023/01/22 07:32:04;;;;;;;30.23;21.20;;;3.00;99.90;;;;;;5016179;28;20524;-55
2023/01/22 07:34:31;;;;;;;28.47;22.30;;;3.00;99.90;;;;;;5016269;28;20443;-56
2023/01/22 07:37:00;;;;;;;26.33;19.90;;;3.00;99.90;;;;;;5015793;28;20960;-56
2023/01/22 07:39:27;;;;;;;24.30;19.70;;;3.00;99.90;;;;;;5016321;28;20452;-55
2023/01/22 07:41:54;;;;;;;25.37;19.53;;;3.00;99.90;;;;;;5015850;28;20496;-56
2023/01/22 07:44:20;;;;;;;25.50;20.30;;;3.00;99.90;;;;;;5015822;28;20610;-55
2023/01/22 07:46:49;;;;;;;23.27;19.30;;;3.00;99.90;;;;;;5015994;28;20450;-56
2023/01/22 07:49:15;;;;;;;26.53;19.00;;;3.00;99.90;;;;;;5015510;28;20462;-56
2023/01/22 07:51:42;;;;;;;18.87;16.60;;;3.00;99.90;;;;;;5015867;28;20439;-55
2023/01/22 07:54:09;;;;;;;20.57;17.80;;;3.00;99.90;;;;;;5016062;28;20453;-56
2023/01/22 07:56:36;;;;;;;20.70;17.63;;;3.00;99.90;;;;;;5015487;28;20951;-56
2023/01/22 07:59:02;;;;;;;19.33;16.23;;;3.10;99.90;;;;;;5016013;28;20448;-57
2023/01/22 08:01:29;;;;;;;21.00;17.00;;;3.10;99.90;;;;;;5015527;28;20515;-54
2023/01/22 08:03:57;;;;;;;20.30;18.10;;;3.10;99.90;;;;;;5030284;28;20947;-56
2023/01/22 08:06:24;;;;;;;23.60;17.93;;;3.10;99.90;;;;;;5034599;28;20443;-55
2023/01/22 08:08:50;;;;;;;23.93;16.10;;;3.10;99.90;;;;;;5035321;28;20432;-56
2023/01/22 08:11:17;;;;;;;19.90;14.60;;;3.10;99.90;;;;;;5035284;28;20463;-55
2023/01/22 08:13:44;;;;;;;19.60;16.93;;;3.10;99.90;;;;;;5035215;28;20507;-56
2023/01/22 08:16:11;;;;;;;19.20;16.63;;;3.10;99.90;;;;;;5035727;28;20428;-55
2023/01/22 08:18:38;;;;;;;18.80;15.40;;;3.10;99.90;;;;;;5035251;28;20800;-55
2023/01/22 08:21:06;;;;;;;19.57;15.23;;;3.20;99.90;;;;;;5035263;28;20451;-56
2023/01/22 08:23:33;;;;;;;18.43;15.70;;;3.20;99.90;;;;;;5034945;28;20493;-55
2023/01/22 08:26:00;;;;;;;22.60;15.53;;;3.20;99.90;;;;;;5035130;28;20823;-55
2023/01/22 08:28:27;;;;;;;19.17;15.27;;;3.10;99.90;;;;;;5034937;28;20555;-56
2023/01/22 08:30:58;;;;;;;18.97;14.97;;;3.20;99.90;;;;;;5034744;28;20447;-55
2023/01/22 08:33:25;;;;;;;20.80;15.73;;;3.20;99.90;;;;;;5034871;28;20556;-55
2023/01/22 08:35:51;;;;;;;19.27;15.53;;;3.20;99.90;;;;;;5034827;28;20460;-56
2023/01/22 08:38:19;;;;;;;18.70;15.47;;;3.20;99.90;;;;;;5035179;28;20433;-55
2023/01/22 08:40:49;;;;;;;19.57;15.73;;;3.20;99.90;;;;;;5034813;28;20460;-55
2023/01/22 08:43:16;;;;;;;20.73;15.03;;;3.20;99.90;;;;;;5034332;28;20527;-55
2023/01/22 08:45:43;;;;;;;20.60;17.13;;;3.20;99.90;;;;;;5034403;28;20463;-56
2023/01/22 08:48:10;;;;;;;18.40;15.43;;;3.20;99.90;;;;;;5034702;28;20448;-56
2023/01/22 08:50:36;;;;;;;19.90;15.30;;;3.20;99.90;;;;;;5034215;28;20446;-55
2023/01/22 08:53:03;;;;;;;18.40;14.47;;;3.20;99.90;;;;;;5034417;28;20475;-55
2023/01/22 08:55:31;;;;;;;19.87;15.43;;;3.20;99.90;;;;;;5034513;28;20450;-55
2023/01/22 08:57:58;;;;;;;17.80;14.00;;;3.20;99.90;;;;;;5034168;28;20456;-56
2023/01/22 09:00:26;;;;;;;19.43;15.13;;;3.20;99.90;;;;;;5034465;28;20446;-55
2023/01/22 09:02:58;;;;;;;17.60;14.67;;;3.20;99.90;;;;;;5033038;28;20533;-56
2023/01/22 09:05:25;;;;;;;22.20;15.17;;;3.30;99.90;;;;;;5034072;28;20436;-56
2023/01/22 09:07:51;;;;;;;20.87;14.87;;;3.30;99.90;;;;;;5034236;28;20448;-55
2023/01/22 09:10:18;;;;;;;20.60;15.50;;;3.30;99.90;;;;;;5034420;28;20453;-56
2023/01/22 09:12:46;;;;;;;20.03;14.60;;;3.40;99.90;;;;;;5034025;28;20467;-55
2023/01/22 09:15:14;;;;;;;20.63;16.57;;;3.40;99.90;;;;;;5034272;28;20444;-56
2023/01/22 09:17:41;;;;;;;18.73;14.20;;;3.40;99.90;;;;;;5032927;28;20478;-55
2023/01/22 09:20:09;;;;;;;18.83;15.00;;;3.40;99.90;;;;;;5034316;28;20483;-56
2023/01/22 09:22:36;;;;;;;19.87;14.97;;;3.50;99.90;;;;;;5033989;28;20487;-55
2023/01/22 09:25:03;;;;;;;20.27;15.80;;;3.50;99.90;;;;;;5033871;28;21085;-55
2023/01/22 09:27:30;;;;;;;19.60;15.37;;;3.50;99.90;;;;;;5034152;28;20868;-55
2023/01/22 09:29:59;;;;;;;20.00;15.30;;;3.60;99.90;;;;;;5034416;28;20453;-55
2023/01/22 09:32:26;;;;;;;20.90;15.13;;;3.60;99.90;;;;;;5034164;28;20494;-55
2023/01/22 09:34:53;;;;;;;27.90;21.87;;;3.60;99.90;;;;;;5032782;28;20455;-55
2023/01/22 09:37:19;;;;;;;29.87;21.27;;;3.60;99.90;;;;;;5034381;28;20864;-55
2023/01/22 09:39:49;;;;;;;32.50;23.23;;;3.60;99.90;;;;;;5033487;28;20462;-56
2023/01/22 09:42:22;;;;;;;27.70;22.07;;;3.60;99.90;;;;;;5034965;28;20850;-56
2023/01/22 09:44:53;;;;;;;25.40;19.77;;;3.70;99.90;;;;;;5034597;28;20432;-55
2023/01/22 09:47:33;;;;;;;19.53;16.93;;;3.60;99.90;;;;;;5034784;28;20441;-56
2023/01/22 09:50:04;;;;;;;17.07;14.13;;;3.70;99.90;;;;;;5033970;28;20438;-54
2023/01/22 09:52:34;;;;;;;18.60;15.07;;;3.70;99.90;;;;;;5034248;28;20489;-55
2023/01/22 09:55:01;;;;;;;20.53;16.20;;;3.70;99.90;;;;;;5033873;28;20964;-54
2023/01/22 09:57:27;;;;;;;20.80;16.00;;;3.70;99.90;;;;;;5034031;28;20453;-55
2023/01/22 09:59:57;;;;;;;20.67;17.90;;;3.70;99.90;;;;;;5034152;28;20446;-56
2023/01/22 10:02:30;;;;;;;20.43;16.60;;;3.70;99.90;;;;;;5033699;28;20561;-55
2023/01/22 10:05:00;;;;;;;22.60;17.33;;;3.70;99.90;;;;;;5033397;28;20435;-56
2023/01/22 10:07:33;;;;;;;24.37;17.00;;;3.80;99.90;;;;;;5033540;28;20812;-55
2023/01/22 10:10:09;;;;;;;23.70;17.63;;;3.80;99.90;;;;;;5033190;28;20866;-56
2023/01/22 10:12:36;;;;;;;27.23;21.30;;;3.80;99.90;;;;;;5033309;28;20478;-55
2023/01/22 10:15:03;;;;;;;24.77;19.10;;;3.80;99.90;;;;;;5033485;28;20809;-56
2023/01/22 10:17:35;;;;;;;27.60;19.87;;;3.80;99.90;;;;;;5033737;28;20482;-56
2023/01/22 10:20:07;;;;;;;29.20;22.40;;;3.80;99.90;;;;;;5033922;28;20444;-56
2023/01/22 10:22:34;;;;;;;32.63;25.10;;;3.80;99.90;;;;;;5032734;28;20554;-56
2023/01/22 10:25:01;;;;;;;29.23;21.00;;;3.80;99.90;;;;;;5032126;28;20481;-56
2023/01/22 10:27:35;;;;;;;21.63;18.80;;;3.80;99.90;;;;;;5034241;28;20458;-56
2023/01/22 10:30:04;;;;;;;28.40;20.97;;;3.90;99.90;;;;;;5034563;28;20432;-56
2023/01/22 10:32:34;;;;;;;34.87;26.13;;;3.90;99.90;;;;;;5037225;28;20836;-56
2023/01/22 10:35:03;;;;;;;31.10;23.07;;;3.90;99.90;;;;;;5037311;28;20456;-56
2023/01/22 10:37:31;;;;;;;31.33;24.77;;;4.00;99.90;;;;;;5037102;28;20928;-55
2023/01/22 10:39:59;;;;;;;28.20;20.83;;;3.90;99.90;;;;;;5037003;28;20451;-56
2023/01/22 10:42:28;;;;;;;26.77;21.57;;;4.00;99.90;;;;;;5036764;28;20558;-55
2023/01/22 10:44:56;;;;;;;28.27;21.23;;;4.00;99.90;;;;;;5036815;28;20442;-55
2023/01/22 10:47:26;;;;;;;44.00;30.33;;;4.00;99.90;;;;;;5036627;28;20913;-56
2023/01/22 10:50:05;;;;;;;37.60;24.37;;;4.00;99.90;;;;;;5036828;28;20866;-56
2023/01/22 10:52:36;;;;;;;32.20;24.13;;;4.10;99.90;;;;;;5037139;28;20480;-56
2023/01/22 10:55:05;;;;;;;38.10;28.23;;;4.10;99.90;;;;;;5036707;28;20447;-55
2023/01/22 10:57:34;;;;;;;29.70;23.30;;;4.10;99.90;;;;;;5036841;28;20442;-56
2023/01/22 11:00:07;;;;;;;26.50;20.30;;;4.10;99.90;;;;;;5036058;28;20457;-55
2023/01/22 11:02:35;;;;;;;26.67;20.50;;;4.10;99.90;;;;;;5036458;28;20489;-56
2023/01/22 11:05:17;;;;;;;26.50;19.20;;;4.10;99.90;;;;;;5037164;28;20435;-55
2023/01/22 11:07:45;;;;;;;31.37;22.60;;;4.10;99.90;;;;;;5035638;28;20458;-55
2023/01/22 11:10:20;;;;;;;31.83;23.90;;;4.10;99.90;;;;;;5036417;28;20453;-56
2023/01/22 11:12:51;;;;;;;30.77;23.60;;;4.10;99.90;;;;;;5036491;28;20478;-55
2023/01/22 11:15:25;;;;;;;29.13;21.47;;;4.10;99.90;;;;;;5036447;28;20443;-56
2023/01/22 11:17:54;;;;;;;31.40;22.73;;;4.10;99.90;;;;;;5036394;28;20438;-56
2023/01/22 11:20:28;;;;;;;28.63;21.53;;;4.10;99.90;;;;;;5036234;28;20504;-56
2023/01/22 11:23:03;;;;;;;31.37;21.43;;;4.20;99.90;;;;;;5036139;28;20479;-56
2023/01/22 11:25:38;;;;;;;29.47;22.00;;;4.20;99.90;;;;;;5036300;28;20439;-56
2023/01/22 11:28:17;;;;;;;28.17;19.90;;;4.20;99.90;;;;;;5035863;28;20525;-55
2023/01/22 11:30:56;;;;;;;26.53;20.90;;;4.30;99.90;;;;;;5036070;28;20486;-55
2023/01/22 11:33:47;;;;;;;30.27;20.93;;;4.30;99.90;;;;;;5035987;28;20817;-55
2023/01/22 11:36:21;;;;;;;25.90;20.40;;;4.40;99.90;;;;;;5036039;28;20945;-56
2023/01/22 11:38:53;;;;;;;31.00;21.40;;;4.40;99.90;;;;;;5035930;28;20804;-55
2023/01/22 11:41:42;;;;;;;29.27;22.47;;;4.50;99.90;;;;;;5035101;28;20434;-55
2023/01/22 11:44:39;;;;;;;27.40;20.43;;;4.50;99.90;;;;;;5035437;28;20486;-55
2023/01/22 11:47:24;;;;;;;23.30;19.47;;;4.50;99.80;;;;;;5035782;28;20457;-57
2023/01/22 11:50:02;;;;;;;25.47;20.50;;;4.60;99.80;;;;;;5035792;28;20437;-56
2023/01/22 11:52:42;;;;;;;23.80;18.90;;;4.60;99.70;;;;;;5035600;28;20484;-55
2023/01/22 11:55:23;;;;;;;27.83;20.93;;;4.60;99.60;;;;;;5035651;28;20442;-56
2023/01/22 11:58:00;;;;;;;26.40;20.10;;;4.60;99.60;;;;;;5035578;28;20447;-56
2023/01/22 12:00:41;;;;;;;24.67;19.70;;;4.60;99.50;;;;;;5035229;28;20972;-56
2023/01/22 12:03:50;;;;;;;26.17;20.43;;;4.70;99.40;;;;;;5035333;28;20495;-56
2023/01/22 12:06:33;;;;;;;30.57;21.60;;;4.70;99.40;;;;;;5011290;28;20825;-56
2023/01/22 12:09:10;;;;;;;27.20;20.83;;;4.70;99.40;;;;;;5035357;28;20439;-56
2023/01/22 12:11:53;;;;;;;29.00;21.87;;;4.70;99.30;;;;;;5035413;28;20429;-55
2023/01/22 12:14:36;;;;;;;24.63;19.00;;;4.70;99.50;;;;;;5035244;28;20430;-55
2023/01/22 12:17:15;;;;;;;28.40;21.20;;;4.70;99.20;;;;;;5035219;28;20437;-55
2023/01/22 12:19:58;;;;;;;27.63;20.97;;;4.70;99.30;;;;;;5035220;28;20442;-56
2023/01/22 12:22:30;;;;;;;32.97;22.60;;;4.60;99.30;;;;;;5035135;28;20480;-56
2023/01/22 12:25:10;;;;;;;26.20;20.23;;;4.60;99.30;;;;;;5034878;28;20498;-56
2023/01/22 12:27:39;;;;;;;29.23;21.40;;;4.60;99.40;;;;;;5034731;28;20441;-55
2023/01/22 12:30:19;;;;;;;26.70;20.90;;;4.50;99.40;;;;;;5034906;28;20463;-56
2023/01/22 12:32:51;;;;;;;29.10;21.93;;;4.60;99.50;;;;;;5034184;28;20479;-56
2023/01/22 12:35:19;;;;;;;27.57;20.43;;;4.60;99.60;;;;;;5034840;28;20434;-56
2023/01/22 12:37:57;;;;;;;39.33;25.00;;;4.60;99.60;;;;;;5034488;28;20907;-56
2023/01/22 12:40:34;;;;;;;38.77;24.97;;;4.60;99.70;;;;;;5034744;28;20429;-56
2023/01/22 12:43:02;;;;;;;36.83;28.13;;;4.60;99.70;;;;;;5034196;28;20503;-55
2023/01/22 12:45:37;;;;;;;33.50;25.30;;;4.60;99.70;;;;;;5034587;28;20452;-56
2023/01/22 12:48:18;;;;;;;27.80;22.70;;;4.60;99.70;;;;;;5033956;28;20446;-54
2023/01/22 12:50:50;;;;;;;31.57;24.70;;;4.60;99.70;;;;;;5034205;28;20431;-56
2023/01/22 12:53:24;;;;;;;26.07;21.60;;;4.60;99.60;;;;;;5033928;28;20478;-55